sensor_id;sensor_type;location;lat;lon;timestamp;P1;durP1;ratioP1;P2;durP2;ratioP2
12145;SDS011;6136;47.032;15.398;2024-03-22T00:01:53;2.70;;;2.50;;
12145;SDS011;6136;47.032;15.398;2024-03-22T00:04:22;2.33;;;2.17;;
12145;SDS011;6136;47.032;15.398;2024-03-22T00:06:49;3.17;;;2.80;;
12145;SDS011;6136;47.032;15.398;2024-03-22T00:09:17;2.40;;;2.20;;
12145;SDS011;6136;47.032;15.398;2024-03-22T00:11:43;2.90;;;2.70;;
12145;SDS011;6136;47.032;15.398;2024-03-22T00:14:11;5.53;;;2.73;;
12145;SDS011;6136;47.032;15.398;2024-03-22T00:16:37;4.47;;;2.20;;
12145;SDS011;6136;47.032;15.398;2024-03-22T00:19:05;2.20;;;2.00;;
12145;SDS011;6136;47.032;15.398;2024-03-22T00:21:31;2.47;;;1.90;;
12145;SDS011;6136;47.032;15.398;2024-03-22T00:24:00;2.07;;;1.97;;
12145;SDS011;6136;47.032;15.398;2024-03-22T00:26:27;2.87;;;1.90;;
12145;SDS011;6136;47.032;15.398;2024-03-22T00:28:54;1.83;;;1.73;;
12145;SDS011;6136;47.032;15.398;2024-03-22T00:31:23;2.23;;;1.90;;
12145;SDS011;6136;47.032;15.398;2024-03-22T00:33:50;2.67;;;2.20;;
12145;SDS011;6136;47.032;15.398;2024-03-22T00:36:17;2.30;;;2.10;;
12145;SDS011;6136;47.032;15.398;2024-03-22T00:38:44;2.23;;;2.03;;
12145;SDS011;6136;47.032;15.398;2024-03-22T00:41:12;1.90;;;1.80;;
12145;SDS011;6136;47.032;15.398;2024-03-22T00:43:39;1.70;;;1.60;;
12145;SDS011;6136;47.032;15.398;2024-03-22T00:46:05;1.93;;;1.73;;
12145;SDS011;6136;47.032;15.398;2024-03-22T00:48:33;2.13;;;2.03;;
12145;SDS011;6136;47.032;15.398;2024-03-22T00:51:00;2.90;;;2.20;;
12145;SDS011;6136;47.032;15.398;2024-03-22T00:53:28;2.50;;;1.93;;
12145;SDS011;6136;47.032;15.398;2024-03-22T00:55:55;1.73;;;1.63;;
12145;SDS011;6136;47.032;15.398;2024-03-22T00:58:26;2.70;;;2.20;;
12145;SDS011;6136;47.032;15.398;2024-03-22T01:00:53;2.17;;;1.93;;
12145;SDS011;6136;47.032;15.398;2024-03-22T01:03:20;2.07;;;1.87;;
12145;SDS011;6136;47.032;15.398;2024-03-22T01:05:46;2.40;;;2.20;;
12145;SDS011;6136;47.032;15.398;2024-03-22T01:08:14;3.43;;;2.17;;
12145;SDS011;6136;47.032;15.398;2024-03-22T01:10:40;2.30;;;1.93;;
12145;SDS011;6136;47.032;15.398;2024-03-22T01:13:08;4.03;;;2.30;;
12145;SDS011;6136;47.032;15.398;2024-03-22T01:15:35;2.00;;;1.60;;
12145;SDS011;6136;47.032;15.398;2024-03-22T01:18:03;2.43;;;2.00;;
12145;SDS011;6136;47.032;15.398;2024-03-22T01:20:30;2.30;;;2.10;;
12145;SDS011;6136;47.032;15.398;2024-03-22T01:22:58;2.33;;;2.10;;
12145;SDS011;6136;47.032;15.398;2024-03-22T01:25:25;2.40;;;2.13;;
12145;SDS011;6136;47.032;15.398;2024-03-22T01:27:52;2.10;;;1.90;;
12145;SDS011;6136;47.032;15.398;2024-03-22T01:30:18;2.40;;;2.20;;
12145;SDS011;6136;47.032;15.398;2024-03-22T01:32:47;3.37;;;2.37;;
12145;SDS011;6136;47.032;15.398;2024-03-22T01:35:13;2.60;;;2.40;;
12145;SDS011;6136;47.032;15.398;2024-03-22T01:37:40;2.40;;;2.20;;
12145;SDS011;6136;47.032;15.398;2024-03-22T01:40:07;3.37;;;2.27;;
12145;SDS011;6136;47.032;15.398;2024-03-22T01:42:35;3.97;;;3.13;;
12145;SDS011;6136;47.032;15.398;2024-03-22T01:45:01;2.50;;;2.30;;
12145;SDS011;6136;47.032;15.398;2024-03-22T01:47:29;3.70;;;2.40;;
12145;SDS011;6136;47.032;15.398;2024-03-22T01:49:57;3.20;;;2.87;;
12145;SDS011;6136;47.032;15.398;2024-03-22T01:52:25;2.70;;;2.50;;
12145;SDS011;6136;47.032;15.398;2024-03-22T01:54:51;4.30;;;2.60;;
12145;SDS011;6136;47.032;15.398;2024-03-22T01:57:18;2.60;;;2.20;;
12145;SDS011;6136;47.032;15.398;2024-03-22T01:59:44;2.70;;;2.50;;
12145;SDS011;6136;47.032;15.398;2024-03-22T02:02:16;2.50;;;2.30;;
12145;SDS011;6136;47.032;15.398;2024-03-22T02:04:42;3.00;;;2.43;;
12145;SDS011;6136;47.032;15.398;2024-03-22T02:07:11;2.60;;;2.40;;
12145;SDS011;6136;47.032;15.398;2024-03-22T02:09:37;4.10;;;2.77;;
12145;SDS011;6136;47.032;15.398;2024-03-22T02:12:05;2.93;;;2.60;;
12145;SDS011;6136;47.032;15.398;2024-03-22T02:14:31;3.00;;;2.70;;
12145;SDS011;6136;47.032;15.398;2024-03-22T02:16:58;3.20;;;2.53;;
12145;SDS011;6136;47.032;15.398;2024-03-22T02:19:24;3.77;;;2.40;;
12145;SDS011;6136;47.032;15.398;2024-03-22T02:21:52;2.80;;;2.60;;
12145;SDS011;6136;47.032;15.398;2024-03-22T02:24:19;2.73;;;2.53;;
12145;SDS011;6136;47.032;15.398;2024-03-22T02:26:47;3.23;;;2.90;;
12145;SDS011;6136;47.032;15.398;2024-03-22T02:29:13;5.17;;;2.83;;
12145;SDS011;6136;47.032;15.398;2024-03-22T02:31:40;3.10;;;2.70;;
12145;SDS011;6136;47.032;15.398;2024-03-22T02:34:06;4.37;;;2.77;;
12145;SDS011;6136;47.032;15.398;2024-03-22T02:36:33;2.63;;;2.43;;
12145;SDS011;6136;47.032;15.398;2024-03-22T02:39:00;3.83;;;2.80;;
12145;SDS011;6136;47.032;15.398;2024-03-22T02:41:28;3.33;;;2.83;;
12145;SDS011;6136;47.032;15.398;2024-03-22T02:43:54;2.83;;;2.63;;
12145;SDS011;6136;47.032;15.398;2024-03-22T02:46:22;3.00;;;2.60;;
12145;SDS011;6136;47.032;15.398;2024-03-22T02:48:48;2.83;;;2.50;;
12145;SDS011;6136;47.032;15.398;2024-03-22T02:51:15;3.23;;;2.70;;
12145;SDS011;6136;47.032;15.398;2024-03-22T02:53:41;3.93;;;2.80;;
12145;SDS011;6136;47.032;15.398;2024-03-22T02:56:08;3.17;;;2.87;;
12145;SDS011;6136;47.032;15.398;2024-03-22T02:58:36;3.73;;;2.70;;
12145;SDS011;6136;47.032;15.398;2024-03-22T03:01:03;4.37;;;2.70;;
12145;SDS011;6136;47.032;15.398;2024-03-22T03:03:31;2.60;;;2.40;;
12145;SDS011;6136;47.032;15.398;2024-03-22T03:05:58;4.80;;;2.93;;
12145;SDS011;6136;47.032;15.398;2024-03-22T03:08:25;4.80;;;2.90;;
12145;SDS011;6136;47.032;15.398;2024-03-22T03:10:52;2.77;;;2.53;;
12145;SDS011;6136;47.032;15.398;2024-03-22T03:13:18;4.10;;;3.10;;
12145;SDS011;6136;47.032;15.398;2024-03-22T03:15:47;3.30;;;2.90;;
12145;SDS011;6136;47.032;15.398;2024-03-22T03:18:13;3.03;;;2.70;;
12145;SDS011;6136;47.032;15.398;2024-03-22T03:20:40;3.17;;;2.80;;
12145;SDS011;6136;47.032;15.398;2024-03-22T03:23:06;2.67;;;2.47;;
12145;SDS011;6136;47.032;15.398;2024-03-22T03:25:34;3.17;;;2.87;;
12145;SDS011;6136;47.032;15.398;2024-03-22T03:28:00;2.90;;;2.60;;
12145;SDS011;6136;47.032;15.398;2024-03-22T03:30:27;2.37;;;2.17;;
12145;SDS011;6136;47.032;15.398;2024-03-22T03:32:54;3.20;;;2.30;;
12145;SDS011;6136;47.032;15.398;2024-03-22T03:35:22;3.47;;;2.40;;
12145;SDS011;6136;47.032;15.398;2024-03-22T03:37:49;4.67;;;2.70;;
12145;SDS011;6136;47.032;15.398;2024-03-22T03:40:16;2.33;;;2.13;;
12145;SDS011;6136;47.032;15.398;2024-03-22T03:42:42;3.97;;;2.43;;
12145;SDS011;6136;47.032;15.398;2024-03-22T03:45:10;2.90;;;2.40;;
12145;SDS011;6136;47.032;15.398;2024-03-22T03:47:36;3.03;;;2.70;;
12145;SDS011;6136;47.032;15.398;2024-03-22T03:50:05;2.60;;;2.40;;
12145;SDS011;6136;47.032;15.398;2024-03-22T03:52:31;3.60;;;2.80;;
12145;SDS011;6136;47.032;15.398;2024-03-22T03:54:58;2.73;;;2.50;;
12145;SDS011;6136;47.032;15.398;2024-03-22T03:57:24;2.60;;;2.40;;
12145;SDS011;6136;47.032;15.398;2024-03-22T03:59:52;2.50;;;2.30;;
12145;SDS011;6136;47.032;15.398;2024-03-22T04:02:18;2.57;;;2.37;;
12145;SDS011;6136;47.032;15.398;2024-03-22T04:04:45;2.80;;;2.20;;
12145;SDS011;6136;47.032;15.398;2024-03-22T04:07:12;3.00;;;2.47;;
12145;SDS011;6136;47.032;15.398;2024-03-22T04:09:40;2.97;;;2.33;;
12145;SDS011;6136;47.032;15.398;2024-03-22T04:12:06;2.40;;;2.20;;
12145;SDS011;6136;47.032;15.398;2024-03-22T04:14:33;2.50;;;2.30;;
12145;SDS011;6136;47.032;15.398;2024-03-22T04:16:59;2.93;;;2.67;;
12145;SDS011;6136;47.032;15.398;2024-03-22T04:19:27;2.30;;;2.10;;
12145;SDS011;6136;47.032;15.398;2024-03-22T04:21:53;3.60;;;2.73;;
12145;SDS011;6136;47.032;15.398;2024-03-22T04:24:21;2.50;;;2.30;;
12145;SDS011;6136;47.032;15.398;2024-03-22T04:26:48;2.67;;;2.47;;
12145;SDS011;6136;47.032;15.398;2024-03-22T04:29:15;2.90;;;2.40;;
12145;SDS011;6136;47.032;15.398;2024-03-22T04:31:41;2.63;;;2.20;;
12145;SDS011;6136;47.032;15.398;2024-03-22T04:34:08;2.30;;;2.10;;
12145;SDS011;6136;47.032;15.398;2024-03-22T04:36:36;2.60;;;2.33;;
12145;SDS011;6136;47.032;15.398;2024-03-22T04:39:03;2.47;;;2.27;;
12145;SDS011;6136;47.032;15.398;2024-03-22T04:41:32;2.97;;;2.47;;
12145;SDS011;6136;47.032;15.398;2024-03-22T04:43:59;3.37;;;2.83;;
12145;SDS011;6136;47.032;15.398;2024-03-22T04:46:26;2.40;;;2.20;;
12145;SDS011;6136;47.032;15.398;2024-03-22T04:48:52;3.73;;;2.30;;
12145;SDS011;6136;47.032;15.398;2024-03-22T04:51:19;3.00;;;2.30;;
12145;SDS011;6136;47.032;15.398;2024-03-22T04:53:47;2.90;;;2.70;;
12145;SDS011;6136;47.032;15.398;2024-03-22T04:56:13;3.23;;;2.40;;
12145;SDS011;6136;47.032;15.398;2024-03-22T04:58:42;2.60;;;2.40;;
12145;SDS011;6136;47.032;15.398;2024-03-22T05:01:08;2.40;;;2.20;;
12145;SDS011;6136;47.032;15.398;2024-03-22T05:03:37;2.43;;;2.23;;
12145;SDS011;6136;47.032;15.398;2024-03-22T05:06:03;4.07;;;2.37;;
12145;SDS011;6136;47.032;15.398;2024-03-22T05:08:32;2.80;;;2.40;;
12145;SDS011;6136;47.032;15.398;2024-03-22T05:10:58;3.07;;;2.07;;
12145;SDS011;6136;47.032;15.398;2024-03-22T05:13:25;3.97;;;2.40;;
12145;SDS011;6136;47.032;15.398;2024-03-22T05:15:53;4.47;;;3.83;;
12145;SDS011;6136;47.032;15.398;2024-03-22T05:18:20;4.13;;;3.73;;
12145;SDS011;6136;47.032;15.398;2024-03-22T05:20:46;4.30;;;3.90;;
12145;SDS011;6136;47.032;15.398;2024-03-22T05:23:13;3.30;;;3.00;;
12145;SDS011;6136;47.032;15.398;2024-03-22T05:25:41;4.30;;;3.17;;
12145;SDS011;6136;47.032;15.398;2024-03-22T05:28:09;5.77;;;2.93;;
12145;SDS011;6136;47.032;15.398;2024-03-22T05:30:35;3.60;;;2.87;;
12145;SDS011;6136;47.032;15.398;2024-03-22T05:33:04;3.37;;;3.00;;
12145;SDS011;6136;47.032;15.398;2024-03-22T05:35:30;3.63;;;3.10;;
12145;SDS011;6136;47.032;15.398;2024-03-22T05:37:57;5.93;;;2.93;;
12145;SDS011;6136;47.032;15.398;2024-03-22T05:40:26;4.33;;;2.60;;
12145;SDS011;6136;47.032;15.398;2024-03-22T05:42:52;3.17;;;2.87;;
12145;SDS011;6136;47.032;15.398;2024-03-22T05:45:19;3.60;;;3.00;;
12145;SDS011;6136;47.032;15.398;2024-03-22T05:47:45;3.30;;;2.73;;
12145;SDS011;6136;47.032;15.398;2024-03-22T05:50:15;3.57;;;3.27;;
12145;SDS011;6136;47.032;15.398;2024-03-22T05:52:41;4.70;;;2.80;;
12145;SDS011;6136;47.032;15.398;2024-03-22T05:55:08;4.43;;;3.30;;
12145;SDS011;6136;47.032;15.398;2024-03-22T05:57:35;5.00;;;2.83;;
12145;SDS011;6136;47.032;15.398;2024-03-22T06:00:02;5.90;;;3.13;;
12145;SDS011;6136;47.032;15.398;2024-03-22T06:02:30;3.60;;;3.30;;
12145;SDS011;6136;47.032;15.398;2024-03-22T06:04:58;4.10;;;3.23;;
12145;SDS011;6136;47.032;15.398;2024-03-22T06:07:26;3.30;;;3.00;;
12145;SDS011;6136;47.032;15.398;2024-03-22T06:09:53;3.80;;;2.90;;
12145;SDS011;6136;47.032;15.398;2024-03-22T06:12:20;6.87;;;3.90;;
12145;SDS011;6136;47.032;15.398;2024-03-22T06:14:47;4.10;;;2.80;;
12145;SDS011;6136;47.032;15.398;2024-03-22T06:17:14;2.80;;;2.60;;
12145;SDS011;6136;47.032;15.398;2024-03-22T06:19:42;3.10;;;2.80;;
12145;SDS011;6136;47.032;15.398;2024-03-22T06:22:08;4.03;;;3.00;;
12145;SDS011;6136;47.032;15.398;2024-03-22T06:24:37;3.00;;;2.70;;
12145;SDS011;6136;47.032;15.398;2024-03-22T06:27:03;4.17;;;2.53;;
12145;SDS011;6136;47.032;15.398;2024-03-22T06:29:32;3.20;;;2.90;;
12145;SDS011;6136;47.032;15.398;2024-03-22T06:31:59;5.90;;;3.10;;
12145;SDS011;6136;47.032;15.398;2024-03-22T06:34:26;5.03;;;3.50;;
12145;SDS011;6136;47.032;15.398;2024-03-22T06:36:52;5.23;;;3.20;;
12145;SDS011;6136;47.032;15.398;2024-03-22T06:39:19;3.83;;;3.40;;
12145;SDS011;6136;47.032;15.398;2024-03-22T06:41:47;6.97;;;3.10;;
12145;SDS011;6136;47.032;15.398;2024-03-22T06:44:14;3.27;;;2.97;;
12145;SDS011;6136;47.032;15.398;2024-03-22T06:46:41;2.97;;;2.70;;
12145;SDS011;6136;47.032;15.398;2024-03-22T06:49:08;3.43;;;2.70;;
12145;SDS011;6136;47.032;15.398;2024-03-22T06:51:34;2.60;;;2.40;;
12145;SDS011;6136;47.032;15.398;2024-03-22T06:54:02;5.07;;;3.20;;
12145;SDS011;6136;47.032;15.398;2024-03-22T06:56:28;4.63;;;2.77;;
12145;SDS011;6136;47.032;15.398;2024-03-22T06:58:57;3.23;;;2.47;;
12145;SDS011;6136;47.032;15.398;2024-03-22T07:01:23;3.10;;;2.80;;
12145;SDS011;6136;47.032;15.398;2024-03-22T07:03:51;4.63;;;3.40;;
12145;SDS011;6136;47.032;15.398;2024-03-22T07:06:18;3.50;;;3.00;;
12145;SDS011;6136;47.032;15.398;2024-03-22T07:08:46;4.88;;;2.90;;
12145;SDS011;6136;47.032;15.398;2024-03-22T07:11:12;2.83;;;2.63;;
12145;SDS011;6136;47.032;15.398;2024-03-22T07:13:39;4.28;;;2.40;;
12145;SDS011;6136;47.032;15.398;2024-03-22T07:16:07;3.75;;;2.85;;
12145;SDS011;6136;47.032;15.398;2024-03-22T07:18:34;3.30;;;2.72;;
12145;SDS011;6136;47.032;15.398;2024-03-22T07:21:00;4.35;;;3.05;;
12145;SDS011;6136;47.032;15.398;2024-03-22T07:23:29;3.92;;;2.72;;
12145;SDS011;6136;47.032;15.398;2024-03-22T07:25:55;3.50;;;2.90;;
12145;SDS011;6136;47.032;15.398;2024-03-22T07:28:22;3.33;;;3.00;;
12145;SDS011;6136;47.032;15.398;2024-03-22T07:30:49;9.98;;;3.50;;
12145;SDS011;6136;47.032;15.398;2024-03-22T07:33:17;5.38;;;3.40;;
12145;SDS011;6136;47.032;15.398;2024-03-22T07:35:43;4.78;;;3.33;;
12145;SDS011;6136;47.032;15.398;2024-03-22T07:38:11;6.55;;;3.08;;
12145;SDS011;6136;47.032;15.398;2024-03-22T07:40:37;3.28;;;2.97;;
12145;SDS011;6136;47.032;15.398;2024-03-22T07:43:04;4.65;;;3.13;;
12145;SDS011;6136;47.032;15.398;2024-03-22T07:45:32;3.20;;;2.90;;
12145;SDS011;6136;47.032;15.398;2024-03-22T07:48:01;4.40;;;3.00;;
12145;SDS011;6136;47.032;15.398;2024-03-22T07:50:29;3.15;;;2.58;;
12145;SDS011;6136;47.032;15.398;2024-03-22T07:52:56;3.20;;;2.88;;
12145;SDS011;6136;47.032;15.398;2024-03-22T07:55:22;3.25;;;3.03;;
12145;SDS011;6136;47.032;15.398;2024-03-22T07:57:50;3.53;;;3.22;;
12145;SDS011;6136;47.032;15.398;2024-03-22T08:00:16;3.53;;;3.22;;
12145;SDS011;6136;47.032;15.398;2024-03-22T08:02:44;4.07;;;3.22;;
12145;SDS011;6136;47.032;15.398;2024-03-22T08:05:10;3.40;;;3.10;;
12145;SDS011;6136;47.032;15.398;2024-03-22T08:07:39;5.75;;;3.10;;
12145;SDS011;6136;47.032;15.398;2024-03-22T08:10:05;4.28;;;3.03;;
12145;SDS011;6136;47.032;15.398;2024-03-22T08:12:33;3.03;;;2.83;;
12145;SDS011;6136;47.032;15.398;2024-03-22T08:14:59;3.97;;;2.90;;
12145;SDS011;6136;47.032;15.398;2024-03-22T08:17:27;3.88;;;2.70;;
12145;SDS011;6136;47.032;15.398;2024-03-22T08:19:53;3.67;;;2.97;;
12145;SDS011;6136;47.032;15.398;2024-03-22T08:22:20;2.97;;;2.70;;
12145;SDS011;6136;47.032;15.398;2024-03-22T08:24:48;3.05;;;2.70;;
12145;SDS011;6136;47.032;15.398;2024-03-22T08:27:15;4.38;;;2.88;;
12145;SDS011;6136;47.032;15.398;2024-03-22T08:29:41;3.05;;;2.78;;
12145;SDS011;6136;47.032;15.398;2024-03-22T08:32:08;4.00;;;2.60;;
12145;SDS011;6136;47.032;15.398;2024-03-22T08:34:34;2.78;;;2.47;;
12145;SDS011;6136;47.032;15.398;2024-03-22T08:37:02;3.92;;;3.15;;
12145;SDS011;6136;47.032;15.398;2024-03-22T08:39:29;3.22;;;2.78;;
12145;SDS011;6136;47.032;15.398;2024-03-22T08:41:58;3.75;;;3.03;;
12145;SDS011;6136;47.032;15.398;2024-03-22T08:44:24;3.08;;;2.78;;
12145;SDS011;6136;47.032;15.398;2024-03-22T08:46:52;2.92;;;2.63;;
12145;SDS011;6136;47.032;15.398;2024-03-22T08:49:18;5.57;;;3.10;;
12145;SDS011;6136;47.032;15.398;2024-03-22T08:51:45;2.80;;;2.58;;
12145;SDS011;6136;47.032;15.398;2024-03-22T08:54:13;3.72;;;2.38;;
12145;SDS011;6136;47.032;15.398;2024-03-22T08:56:41;3.33;;;2.78;;
12145;SDS011;6136;47.032;15.398;2024-03-22T08:59:08;2.88;;;2.67;;
12145;SDS011;6136;47.032;15.398;2024-03-22T09:01:36;2.72;;;2.50;;
12145;SDS011;6136;47.032;15.398;2024-03-22T09:04:02;2.50;;;2.30;;
12145;SDS011;6136;47.032;15.398;2024-03-22T09:06:30;3.63;;;2.80;;
12145;SDS011;6136;47.032;15.398;2024-03-22T09:08:56;3.28;;;2.65;;
12145;SDS011;6136;47.032;15.398;2024-03-22T09:11:24;2.92;;;2.65;;
12145;SDS011;6136;47.032;15.398;2024-03-22T09:13:51;2.92;;;2.67;;
12145;SDS011;6136;47.032;15.398;2024-03-22T09:16:20;2.75;;;2.55;;
12145;SDS011;6136;47.032;15.398;2024-03-22T09:18:48;2.92;;;2.53;;
12145;SDS011;6136;47.032;15.398;2024-03-22T09:21:14;3.15;;;2.42;;
12145;SDS011;6136;47.032;15.398;2024-03-22T09:23:41;2.65;;;2.45;;
12145;SDS011;6136;47.032;15.398;2024-03-22T09:26:07;2.80;;;2.60;;
12145;SDS011;6136;47.032;15.398;2024-03-22T09:28:35;2.65;;;2.42;;
12145;SDS011;6136;47.032;15.398;2024-03-22T09:31:03;3.40;;;2.80;;
12145;SDS011;6136;47.032;15.398;2024-03-22T09:33:33;3.05;;;2.40;;
12145;SDS011;6136;47.032;15.398;2024-03-22T09:35:59;2.80;;;2.60;;
12145;SDS011;6136;47.032;15.398;2024-03-22T09:38:27;3.70;;;2.20;;
12145;SDS011;6136;47.032;15.398;2024-03-22T09:40:53;2.97;;;2.67;;
12145;SDS011;6136;47.032;15.398;2024-03-22T09:43:21;2.80;;;2.60;;
12145;SDS011;6136;47.032;15.398;2024-03-22T09:45:48;3.15;;;2.20;;
12145;SDS011;6136;47.032;15.398;2024-03-22T09:48:16;3.67;;;2.38;;
12145;SDS011;6136;47.032;15.398;2024-03-22T09:50:45;2.58;;;2.20;;
12145;SDS011;6136;47.032;15.398;2024-03-22T09:53:14;2.47;;;2.28;;
12145;SDS011;6136;47.032;15.398;2024-03-22T09:55:46;2.53;;;2.30;;
12145;SDS011;6136;47.032;15.398;2024-03-22T09:58:14;5.05;;;2.60;;
12145;SDS011;6136;47.032;15.398;2024-03-22T10:00:42;2.47;;;2.28;;
12145;SDS011;6136;47.032;15.398;2024-03-22T10:03:10;3.83;;;2.40;;
12145;SDS011;6136;47.032;15.398;2024-03-22T10:05:36;2.20;;;2.00;;
12145;SDS011;6136;47.032;15.398;2024-03-22T10:08:05;2.28;;;2.10;;
12145;SDS011;6136;47.032;15.398;2024-03-22T10:10:32;2.40;;;2.20;;
12145;SDS011;6136;47.032;15.398;2024-03-22T10:13:00;3.75;;;1.80;;
12145;SDS011;6136;47.032;15.398;2024-03-22T10:15:26;4.13;;;2.10;;
12145;SDS011;6136;47.032;15.398;2024-03-22T10:17:56;2.78;;;2.08;;
12145;SDS011;6136;47.032;15.398;2024-03-22T10:20:24;7.35;;;2.33;;
12145;SDS011;6136;47.032;15.398;2024-03-22T10:22:55;2.25;;;1.95;;
12145;SDS011;6136;47.032;15.398;2024-03-22T10:25:26;5.78;;;2.33;;
12145;SDS011;6136;47.032;15.398;2024-03-22T10:27:53;3.33;;;2.30;;
12145;SDS011;6136;47.032;15.398;2024-03-22T10:30:21;2.20;;;2.10;;
12145;SDS011;6136;47.032;15.398;2024-03-22T10:32:49;2.20;;;1.95;;
12145;SDS011;6136;47.032;15.398;2024-03-22T10:35:18;2.22;;;2.10;;
12145;SDS011;6136;47.032;15.398;2024-03-22T10:37:44;4.75;;;2.40;;
12145;SDS011;6136;47.032;15.398;2024-03-22T10:40:12;3.42;;;2.35;;
12145;SDS011;6136;47.032;15.398;2024-03-22T10:42:41;2.00;;;1.88;;
12145;SDS011;6136;47.032;15.398;2024-03-22T10:45:12;2.40;;;1.98;;
12145;SDS011;6136;47.032;15.398;2024-03-22T10:47:38;2.00;;;1.83;;
12145;SDS011;6136;47.032;15.398;2024-03-22T10:50:07;2.10;;;1.90;;
12145;SDS011;6136;47.032;15.398;2024-03-22T10:52:36;1.85;;;1.75;;
12145;SDS011;6136;47.032;15.398;2024-03-22T10:55:06;2.05;;;1.95;;
12145;SDS011;6136;47.032;15.398;2024-03-22T10:57:36;2.30;;;2.10;;
12145;SDS011;6136;47.032;15.398;2024-03-22T11:00:07;3.03;;;2.15;;
12145;SDS011;6136;47.032;15.398;2024-03-22T11:02:36;2.13;;;1.92;;
12145;SDS011;6136;47.032;15.398;2024-03-22T11:05:03;2.58;;;2.10;;
12145;SDS011;6136;47.032;15.398;2024-03-22T11:07:30;2.28;;;2.13;;
12145;SDS011;6136;47.032;15.398;2024-03-22T11:10:00;2.47;;;2.28;;
12145;SDS011;6136;47.032;15.398;2024-03-22T11:12:28;2.08;;;1.98;;
12145;SDS011;6136;47.032;15.398;2024-03-22T11:14:59;2.03;;;1.92;;
12145;SDS011;6136;47.032;15.398;2024-03-22T11:17:27;2.85;;;2.00;;
12145;SDS011;6136;47.032;15.398;2024-03-22T11:19:56;2.97;;;2.10;;
12145;SDS011;6136;47.032;15.398;2024-03-22T11:22:24;2.65;;;1.90;;
12145;SDS011;6136;47.032;15.398;2024-03-22T11:24:52;2.50;;;2.30;;
12145;SDS011;6136;47.032;15.398;2024-03-22T11:27:18;2.00;;;1.80;;
12145;SDS011;6136;47.032;15.398;2024-03-22T11:29:45;2.20;;;1.88;;
12145;SDS011;6136;47.032;15.398;2024-03-22T11:32:13;3.58;;;1.60;;
12145;SDS011;6136;47.032;15.398;2024-03-22T11:34:43;2.00;;;1.80;;
12145;SDS011;6136;47.032;15.398;2024-03-22T11:37:09;2.10;;;1.90;;
12145;SDS011;6136;47.032;15.398;2024-03-22T11:39:37;3.00;;;1.80;;
12145;SDS011;6136;47.032;15.398;2024-03-22T11:42:03;2.08;;;1.88;;
12145;SDS011;6136;47.032;15.398;2024-03-22T11:44:32;2.03;;;1.85;;
12145;SDS011;6136;47.032;15.398;2024-03-22T11:47:02;2.38;;;1.80;;
12145;SDS011;6136;47.032;15.398;2024-03-22T11:49:30;2.60;;;1.63;;
12145;SDS011;6136;47.032;15.398;2024-03-22T11:51:57;2.78;;;1.60;;
12145;SDS011;6136;47.032;15.398;2024-03-22T11:54:24;2.20;;;2.00;;
12145;SDS011;6136;47.032;15.398;2024-03-22T11:56:51;3.92;;;1.80;;
12145;SDS011;6136;47.032;15.398;2024-03-22T11:59:19;2.55;;;1.88;;
12145;SDS011;6136;47.032;15.398;2024-03-22T12:01:45;1.88;;;1.73;;
12145;SDS011;6136;47.032;15.398;2024-03-22T12:04:13;3.13;;;2.10;;
12145;SDS011;6136;47.032;15.398;2024-03-22T12:06:41;2.13;;;1.85;;
12145;SDS011;6136;47.032;15.398;2024-03-22T12:09:10;3.20;;;1.88;;
12145;SDS011;6136;47.032;15.398;2024-03-22T12:11:38;5.85;;;2.10;;
12145;SDS011;6136;47.032;15.398;2024-03-22T12:14:06;1.92;;;1.83;;
12145;SDS011;6136;47.032;15.398;2024-03-22T12:16:32;1.95;;;1.75;;
12145;SDS011;6136;47.032;15.398;2024-03-22T12:18:59;3.08;;;1.90;;
12145;SDS011;6136;47.032;15.398;2024-03-22T12:21:25;2.38;;;1.55;;
12145;SDS011;6136;47.032;15.398;2024-03-22T12:23:53;4.05;;;1.90;;
12145;SDS011;6136;47.032;15.398;2024-03-22T12:26:21;2.33;;;2.13;;
12145;SDS011;6136;47.032;15.398;2024-03-22T12:28:48;5.30;;;3.60;;
12145;SDS011;6136;47.032;15.398;2024-03-22T12:31:16;2.30;;;2.10;;
12145;SDS011;6136;47.032;15.398;2024-03-22T12:33:45;2.75;;;2.25;;
12145;SDS011;6136;47.032;15.398;2024-03-22T12:36:11;1.88;;;1.77;;
12145;SDS011;6136;47.032;15.398;2024-03-22T12:38:38;2.90;;;2.45;;
12145;SDS011;6136;47.032;15.398;2024-03-22T12:41:04;2.30;;;2.10;;
12145;SDS011;6136;47.032;15.398;2024-03-22T12:43:33;3.58;;;2.25;;
12145;SDS011;6136;47.032;15.398;2024-03-22T12:46:00;2.55;;;1.60;;
12145;SDS011;6136;47.032;15.398;2024-03-22T12:48:28;2.00;;;1.88;;
12145;SDS011;6136;47.032;15.398;2024-03-22T12:50:54;1.98;;;1.77;;
12145;SDS011;6136;47.032;15.398;2024-03-22T12:53:21;1.95;;;1.83;;
12145;SDS011;6136;47.032;15.398;2024-03-22T12:55:48;2.60;;;2.10;;
12145;SDS011;6136;47.032;15.398;2024-03-22T12:58:15;2.72;;;2.22;;
12145;SDS011;6136;47.032;15.398;2024-03-22T13:00:42;2.70;;;2.25;;
12145;SDS011;6136;47.032;15.398;2024-03-22T13:03:10;2.20;;;2.00;;
12145;SDS011;6136;47.032;15.398;2024-03-22T13:05:37;2.42;;;2.10;;
12145;SDS011;6136;47.032;15.398;2024-03-22T13:08:05;1.88;;;1.73;;
12145;SDS011;6136;47.032;15.398;2024-03-22T13:10:31;3.15;;;2.10;;
12145;SDS011;6136;47.032;15.398;2024-03-22T13:12:58;4.75;;;2.38;;
12145;SDS011;6136;47.032;15.398;2024-03-22T13:15:25;2.40;;;2.03;;
12145;SDS011;6136;47.032;15.398;2024-03-22T13:17:53;5.28;;;2.30;;
12145;SDS011;6136;47.032;15.398;2024-03-22T13:20:21;4.38;;;1.88;;
12145;SDS011;6136;47.032;15.398;2024-03-22T13:22:49;2.72;;;1.95;;
12145;SDS011;6136;47.032;15.398;2024-03-22T13:25:15;2.35;;;2.00;;
12145;SDS011;6136;47.032;15.398;2024-03-22T13:27:42;3.22;;;2.17;;
12145;SDS011;6136;47.032;15.398;2024-03-22T13:30:09;1.83;;;1.65;;
12145;SDS011;6136;47.032;15.398;2024-03-22T13:32:38;9.05;;;5.68;;
12145;SDS011;6136;47.032;15.398;2024-03-22T13:35:06;4.97;;;2.42;;
12145;SDS011;6136;47.032;15.398;2024-03-22T13:37:34;4.82;;;4.10;;
12145;SDS011;6136;47.032;15.398;2024-03-22T13:40:00;4.97;;;2.00;;
12145;SDS011;6136;47.032;15.398;2024-03-22T13:42:28;2.47;;;1.90;;
12145;SDS011;6136;47.032;15.398;2024-03-22T13:44:55;3.22;;;1.75;;
12145;SDS011;6136;47.032;15.398;2024-03-22T13:47:22;2.83;;;1.80;;
12145;SDS011;6136;47.032;15.398;2024-03-22T13:49:49;5.10;;;2.20;;
12145;SDS011;6136;47.032;15.398;2024-03-22T13:52:18;2.83;;;1.75;;
12145;SDS011;6136;47.032;15.398;2024-03-22T13:54:44;4.97;;;1.90;;
12145;SDS011;6136;47.032;15.398;2024-03-22T13:57:11;2.33;;;1.70;;
12145;SDS011;6136;47.032;15.398;2024-03-22T13:59:37;2.53;;;1.65;;
12145;SDS011;6136;47.032;15.398;2024-03-22T14:02:05;2.75;;;2.00;;
12145;SDS011;6136;47.032;15.398;2024-03-22T14:04:33;2.67;;;1.88;;
12145;SDS011;6136;47.032;15.398;2024-03-22T14:07:01;1.80;;;1.70;;
12145;SDS011;6136;47.032;15.398;2024-03-22T14:09:32;2.08;;;1.88;;
12145;SDS011;6136;47.032;15.398;2024-03-22T14:11:59;1.70;;;1.60;;
12145;SDS011;6136;47.032;15.398;2024-03-22T14:14:25;4.55;;;3.35;;
12145;SDS011;6136;47.032;15.398;2024-03-22T14:16:53;2.35;;;2.15;;
12145;SDS011;6136;47.032;15.398;2024-03-22T14:19:20;2.20;;;2.00;;
12145;SDS011;6136;47.032;15.398;2024-03-22T14:21:47;3.38;;;2.03;;
12145;SDS011;6136;47.032;15.398;2024-03-22T14:24:13;2.42;;;1.80;;
12145;SDS011;6136;47.032;15.398;2024-03-22T14:26:43;2.35;;;1.90;;
12145;SDS011;6136;47.032;15.398;2024-03-22T14:29:09;2.65;;;1.95;;
12145;SDS011;6136;47.032;15.398;2024-03-22T14:31:36;1.85;;;1.75;;
12145;SDS011;6136;47.032;15.398;2024-03-22T14:34:03;2.10;;;1.70;;
12145;SDS011;6136;47.032;15.398;2024-03-22T14:36:32;1.75;;;1.65;;
12145;SDS011;6136;47.032;15.398;2024-03-22T14:38:59;4.05;;;2.20;;
12145;SDS011;6136;47.032;15.398;2024-03-22T14:41:27;2.08;;;1.88;;
12145;SDS011;6136;47.032;15.398;2024-03-22T14:43:55;2.35;;;1.80;;
12145;SDS011;6136;47.032;15.398;2024-03-22T14:46:22;3.35;;;1.90;;
12145;SDS011;6136;47.032;15.398;2024-03-22T14:48:53;2.35;;;1.90;;